Time;durP1;ratioP1;P1;durP2;ratioP2;P2;SDS_P1;SDS_P2;PMS_P1;PMS_P2;Temp;Humidity;BMP_temperature;BMP_pressure;BME280_temperature;BME280_humidity;BME280_pressure;Samples;Min_cycle;Max_cycle;Signal;HPM_P1;HPM_P2
2021/04/11 00:02:05;;;;;;;24.08;16.70;;;19.90;41.40;;;;;;5100860;27;20047;-37
2021/04/11 00:04:32;;;;;;;22.00;16.42;;;20.00;41.50;;;;;;5128507;27;20047;-37
2021/04/11 00:06:59;;;;;;;23.45;16.27;;;19.90;41.40;;;;;;5132896;27;20097;-37
2021/04/11 00:09:25;;;;;;;22.48;16.67;;;19.90;41.40;;;;;;5124028;27;20047;-38
2021/04/11 00:11:52;;;;;;;22.40;16.92;;;19.90;41.40;;;;;;5113809;27;20043;-37
2021/04/11 00:14:19;;;;;;;23.77;17.15;;;19.90;41.40;;;;;;5126566;27;20048;-37
2021/04/11 00:16:45;;;;;;;22.63;16.45;;;19.90;41.40;;;;;;5118680;27;20104;-37
2021/04/11 00:19:12;;;;;;;23.90;17.38;;;19.90;41.40;;;;;;5131472;27;20042;-38
2021/04/11 00:21:38;;;;;;;23.45;17.15;;;19.90;41.40;;;;;;5134212;27;20501;-38
2021/04/11 00:24:05;;;;;;;24.67;17.45;;;19.90;41.40;;;;;;5131308;27;20083;-38
2021/04/11 00:26:32;;;;;;;21.75;16.42;;;19.90;41.40;;;;;;5111014;28;20050;-37
2021/04/11 00:28:59;;;;;;;22.73;16.92;;;19.90;41.40;;;;;;5115811;27;20048;-37
2021/04/11 00:31:26;;;;;;;22.17;16.33;;;19.90;41.40;;;;;;5115775;27;20120;-37
2021/04/11 00:33:53;;;;;;;23.08;16.88;;;19.90;41.40;;;;;;5126629;27;20100;-37
2021/04/11 00:36:20;;;;;;;24.67;17.60;;;19.90;41.40;;;;;;5131956;27;20043;-37
2021/04/11 00:38:47;;;;;;;23.63;17.02;;;19.90;41.40;;;;;;5132716;27;20115;-37
2021/04/11 00:41:30;;;;;;;23.13;17.15;;;19.90;41.40;;;;;;5125816;27;20067;-37
2021/04/11 00:43:57;;;;;;;22.70;16.50;;;19.90;41.50;;;;;;5115807;27;20105;-37
2021/04/11 00:46:31;;;;;;;22.80;16.65;;;19.90;41.40;;;;;;5120239;27;20063;-37
2021/04/11 00:48:59;;;;;;;24.08;17.33;;;19.90;41.40;;;;;;5132077;27;20088;-37
2021/04/11 00:51:30;;;;;;;22.25;15.60;;;19.90;41.40;;;;;;5115045;27;20445;-37
2021/04/11 00:54:03;;;;;;;23.23;16.90;;;19.90;41.40;;;;;;5114340;27;20455;-38
2021/04/11 00:56:32;;;;;;;23.52;16.40;;;19.90;41.40;;;;;;5113547;28;20463;-36
2021/04/11 00:58:59;;;;;;;21.95;16.25;;;19.90;41.40;;;;;;5114669;28;20483;-37
2021/04/11 01:01:25;;;;;;;22.60;16.88;;;19.90;41.40;;;;;;5133141;27;20501;-36
2021/04/11 01:03:52;;;;;;;21.20;16.15;;;19.90;41.40;;;;;;5132621;27;20074;-36
2021/04/11 01:06:25;;;;;;;21.73;16.05;;;19.90;41.40;;;;;;5132855;27;20054;-36
2021/04/11 01:08:53;;;;;;;20.80;15.38;;;19.90;41.40;;;;;;5134371;27;20081;-36
2021/04/11 01:11:31;;;;;;;22.17;15.80;;;19.90;41.40;;;;;;5135113;27;20039;-36
2021/04/11 01:14:01;;;;;;;22.48;16.65;;;19.90;41.40;;;;;;5134949;27;20055;-38
2021/04/11 01:16:29;;;;;;;20.88;15.18;;;19.90;41.40;;;;;;5134968;27;20039;-36
2021/04/11 01:18:56;;;;;;;21.15;15.57;;;19.90;41.40;;;;;;5135264;27;20046;-36
2021/04/11 01:21:33;;;;;;;20.67;15.13;;;19.90;41.40;;;;;;5135119;27;20096;-38
2021/04/11 01:24:16;;;;;;;23.50;16.35;;;19.90;41.40;;;;;;5137741;27;20047;-36
2021/04/11 01:26:46;;;;;;;21.77;15.93;;;19.90;41.40;;;;;;5133912;27;20042;-36
2021/04/11 01:29:13;;;;;;;21.20;15.52;;;19.90;41.40;;;;;;5134831;27;20039;-36
2021/04/11 01:31:41;;;;;;;23.70;16.60;;;19.90;41.40;;;;;;5135753;27;20043;-36
2021/04/11 01:34:11;;;;;;;22.30;16.27;;;19.90;41.40;;;;;;5135426;27;20096;-36
2021/04/11 01:36:41;;;;;;;21.40;15.95;;;19.90;41.40;;;;;;5135412;27;20448;-36
2021/04/11 01:39:22;;;;;;;21.67;15.90;;;19.90;41.40;;;;;;5134819;27;20050;-36
2021/04/11 01:41:51;;;;;;;22.15;15.95;;;19.90;41.40;;;;;;5134807;27;20078;-36
2021/04/11 01:44:22;;;;;;;20.13;14.88;;;19.90;41.40;;;;;;5133480;27;20047;-36
2021/04/11 01:46:49;;;;;;;20.02;15.48;;;19.90;41.40;;;;;;5133469;27;20051;-37
2021/04/11 01:49:20;;;;;;;24.60;16.75;;;19.90;41.40;;;;;;5134911;27;20383;-37
2021/04/11 01:51:52;;;;;;;19.63;14.98;;;19.90;41.40;;;;;;5135605;27;20096;-37
2021/04/11 01:54:23;;;;;;;20.58;15.13;;;19.90;41.40;;;;;;5134778;27;20478;-37
2021/04/11 01:56:50;;;;;;;22.67;15.63;;;19.90;41.40;;;;;;5134559;27;20448;-37
2021/04/11 01:59:22;;;;;;;20.42;14.18;;;19.90;41.50;;;;;;5133320;27;20116;-37
2021/04/11 02:01:50;;;;;;;21.98;15.35;;;19.90;41.40;;;;;;5133233;27;20047;-37
2021/04/11 02:04:18;;;;;;;22.20;14.95;;;19.90;41.50;;;;;;5135526;27;20043;-37
2021/04/11 02:06:52;;;;;;;22.60;15.07;;;19.90;41.40;;;;;;5133701;27;20130;-37
2021/04/11 02:09:23;;;;;;;21.23;15.52;;;19.90;41.50;;;;;;5133634;27;20146;-37
2021/04/11 02:11:51;;;;;;;20.20;14.70;;;19.90;41.40;;;;;;5135286;27;20047;-37
2021/04/11 02:14:18;;;;;;;19.23;14.15;;;19.90;41.40;;;;;;5133731;27;20523;-38
2021/04/11 02:16:45;;;;;;;21.15;15.05;;;19.90;41.50;;;;;;5133512;27;20076;-37
2021/04/11 02:19:23;;;;;;;20.23;14.93;;;19.90;41.40;;;;;;5134897;27;20078;-37
2021/04/11 02:21:59;;;;;;;20.75;15.32;;;19.90;41.40;;;;;;5135193;27;20456;-37
2021/04/11 02:24:27;;;;;;;20.75;14.63;;;19.90;41.50;;;;;;5135029;27;20051;-37
2021/04/11 02:26:54;;;;;;;19.73;15.05;;;19.90;41.40;;;;;;5135294;27;20096;-37
2021/04/11 02:29:23;;;;;;;19.92;14.05;;;19.90;41.40;;;;;;5131175;27;20075;-37
2021/04/11 02:31:50;;;;;;;20.90;14.63;;;19.90;41.40;;;;;;5134585;27;20126;-37
2021/04/11 02:34:25;;;;;;;20.23;14.52;;;19.90;41.40;;;;;;5115168;27;20055;-37
2021/04/11 02:37:14;;;;;;;18.13;14.45;;;19.90;41.50;;;;;;5134801;27;20617;-37
2021/04/11 02:39:42;;;;;;;19.95;14.20;;;19.90;41.50;;;;;;5134937;27;20051;-36
2021/04/11 02:42:22;;;;;;;19.50;13.93;;;19.90;41.50;;;;;;5133565;27;20120;-37
2021/04/11 02:44:52;;;;;;;19.42;14.20;;;19.90;41.40;;;;;;5118070;27;20047;-37
2021/04/11 02:47:19;;;;;;;18.58;13.88;;;19.90;41.50;;;;;;5133227;27;20043;-37
2021/04/11 02:49:50;;;;;;;20.10;14.55;;;19.90;41.50;;;;;;5133383;27;20058;-37
2021/04/11 02:52:25;;;;;;;18.25;14.02;;;19.90;41.50;;;;;;5133315;27;20047;-37
2021/04/11 02:54:54;;;;;;;21.23;14.80;;;19.90;41.50;;;;;;5131867;27;20039;-37
2021/04/11 02:57:21;;;;;;;20.00;14.38;;;19.90;41.50;;;;;;5132143;27;20051;-37
2021/04/11 02:59:51;;;;;;;18.92;13.93;;;19.90;41.40;;;;;;5135582;27;20451;-37
2021/04/11 03:02:18;;;;;;;18.00;13.88;;;19.90;41.50;;;;;;5130535;27;20055;-37
2021/04/11 03:04:44;;;;;;;18.02;13.55;;;19.90;41.50;;;;;;5134182;27;20047;-37
2021/04/11 03:07:21;;;;;;;19.95;14.80;;;19.90;41.50;;;;;;5128604;27;20539;-36
2021/04/11 03:09:54;;;;;;;19.02;14.38;;;19.90;41.50;;;;;;5120461;27;20615;-37
2021/04/11 03:12:21;;;;;;;18.98;14.27;;;19.90;41.50;;;;;;5131533;27;20122;-37
2021/04/11 03:14:48;;;;;;;18.95;14.05;;;19.90;41.40;;;;;;5131486;27;20051;-37
2021/04/11 03:17:19;;;;;;;20.58;14.63;;;19.90;41.50;;;;;;5132995;27;20039;-35
2021/04/11 03:20:00;;;;;;;19.02;13.25;;;19.90;41.50;;;;;;5132913;27;20051;-37
2021/04/11 03:22:28;;;;;;;19.52;13.57;;;19.90;41.50;;;;;;5115681;27;20079;-37
2021/04/11 03:24:54;;;;;;;18.35;13.43;;;19.90;41.50;;;;;;5134135;27;20050;-37
2021/04/11 03:27:36;;;;;;;19.60;14.00;;;19.90;41.50;;;;;;5118302;27;20096;-37
2021/04/11 03:30:33;;;;;;;18.67;13.30;;;19.90;41.50;;;;;;5131834;27;20111;-37
2021/04/11 03:33:04;;;;;;;18.88;13.43;;;19.90;41.50;;;;;;5127195;27;20103;-37
2021/04/11 03:35:35;;;;;;;19.05;13.75;;;19.90;41.50;;;;;;5118795;27;20075;-36
2021/04/11 03:38:03;;;;;;;17.85;13.18;;;19.90;41.50;;;;;;5131722;27;20078;-37
2021/04/11 03:40:34;;;;;;;18.75;13.27;;;19.90;41.50;;;;;;5131439;27;20123;-36
2021/04/11 03:43:11;;;;;;;17.92;12.98;;;19.90;41.50;;;;;;5123062;27;20043;-37
2021/04/11 03:45:38;;;;;;;16.83;12.95;;;19.90;41.50;;;;;;5118110;27;20389;-37
2021/04/11 03:48:28;;;;;;;18.00;13.35;;;19.90;41.50;;;;;;5126351;27;20095;-37
2021/04/11 03:51:24;;;;;;;18.15;13.00;;;19.90;41.50;;;;;;5122192;27;20522;-37
2021/04/11 03:54:21;;;;;;;15.82;12.57;;;19.90;41.50;;;;;;5121045;27;20051;-37
2021/04/11 03:56:55;;;;;;;17.77;13.43;;;19.90;41.50;;;;;;5116731;27;20058;-37
2021/04/11 03:59:27;;;;;;;;;;;19.90;41.50;;;;;;5118911;27;20052;-37
2021/04/11 04:01:58;;;;;;;18.50;12.85;;;19.90;41.50;;;;;;5119011;27;19919;-36
2021/04/11 04:04:26;;;;;;;17.83;13.18;;;19.90;41.50;;;;;;5126107;27;20077;-37
2021/04/11 04:07:05;;;;;;;17.58;12.88;;;19.90;41.50;;;;;;5130077;27;20502;-37
2021/04/11 04:09:32;;;;;;;17.92;12.35;;;19.90;41.50;;;;;;5133120;27;20398;-37
2021/04/11 04:12:32;;;;;;;16.63;12.73;;;19.90;41.50;;;;;;5132817;27;20035;-37
2021/04/11 04:15:18;;;;;;;16.95;12.75;;;19.90;41.50;;;;;;5131789;27;20619;-36
2021/04/11 04:17:55;;;;;;;17.17;12.60;;;19.80;41.40;;;;;;5124618;27;20072;-37
2021/04/11 04:20:50;;;;;;;16.77;12.85;;;19.90;41.50;;;;;;5122530;27;20411;-37
2021/04/11 04:23:43;;;;;;;18.17;12.70;;;19.90;41.50;;;;;;5115004;27;20051;-37
2021/04/11 04:26:34;;;;;;;16.20;12.32;;;19.80;41.40;;;;;;5130694;27;20046;-37
2021/04/11 04:29:25;;;;;;;17.55;12.60;;;19.80;41.40;;;;;;5129221;27;20043;-37
2021/04/11 04:32:23;;;;;;;17.45;12.52;;;19.90;41.50;;;;;;5127445;27;20444;-37
2021/04/11 04:35:06;;;;;;;18.15;12.90;;;19.90;41.50;;;;;;5131787;27;20525;-37
2021/04/11 04:37:49;;;;;;;17.15;12.88;;;19.80;41.40;;;;;;5131150;27;20051;-37
2021/04/11 04:40:41;;;;;;;17.02;12.55;;;19.90;41.50;;;;;;5132523;27;20119;-37
2021/04/11 04:43:38;;;;;;;18.27;12.35;;;19.90;41.50;;;;;;5131585;28;20360;-37
2021/04/11 04:46:31;;;;;;;16.65;12.52;;;19.80;41.50;;;;;;5080572;27;20047;-38
2021/04/11 04:49:06;;;;;;;17.35;12.23;;;19.90;41.50;;;;;;5103647;27;20047;-37
2021/04/11 04:51:50;;;;;;;16.30;12.52;;;19.90;41.50;;;;;;5132214;27;20090;-37
2021/04/11 04:54:26;;;;;;;15.48;11.75;;;19.80;41.50;;;;;;5116368;27;20536;-37
2021/04/11 04:56:59;;;;;;;16.02;11.93;;;19.80;41.40;;;;;;5132195;27;20051;-38
2021/04/11 04:59:36;;;;;;;15.93;12.48;;;19.80;41.50;;;;;;5130976;28;20051;-37
2021/04/11 05:02:09;;;;;;;17.48;13.38;;;19.90;41.50;;;;;;5131181;28;20043;-38
2021/04/11 05:04:38;;;;;;;;;;;19.90;41.50;;;;;;5133435;27;20062;-38
2021/04/11 05:07:11;;;;;;;16.50;12.48;;;19.80;41.50;;;;;;5130149;27;19923;-37
2021/04/11 05:09:58;;;;;;;17.30;12.80;;;19.90;41.50;;;;;;5130841;27;20498;-37
2021/04/11 05:12:57;;;;;;;15.80;12.30;;;19.90;41.60;;;;;;5131958;27;20096;-38
2021/04/11 05:15:37;;;;;;;16.35;12.88;;;19.90;41.50;;;;;;5132186;27;20043;-37
2021/04/11 05:18:18;;;;;;;15.23;11.38;;;19.80;41.50;;;;;;5132704;27;20122;-37
2021/04/11 05:20:51;;;;;;;15.90;11.85;;;19.90;41.50;;;;;;5132633;27;20054;-37
2021/04/11 05:23:27;;;;;;;16.15;11.88;;;19.90;41.50;;;;;;5132037;27;20044;-37
2021/04/11 05:26:20;;;;;;;17.25;12.30;;;19.80;41.50;;;;;;5132108;27;20058;-37
2021/04/11 05:28:54;;;;;;;16.05;12.35;;;19.90;41.50;;;;;;5130630;27;20054;-37
2021/04/11 05:31:26;;;;;;;15.52;11.55;;;19.90;41.50;;;;;;5129442;27;20092;-37
2021/04/11 05:33:54;;;;;;;16.20;12.18;;;19.80;41.40;;;;;;5129603;27;20054;-37
2021/04/11 05:36:47;;;;;;;16.35;12.20;;;19.90;41.50;;;;;;5131012;27;20039;-37
2021/04/11 05:39:25;;;;;;;15.57;11.82;;;19.90;41.50;;;;;;5118199;27;20085;-37
2021/04/11 05:41:55;;;;;;;15.70;11.77;;;19.90;41.50;;;;;;5126173;27;20047;-37
2021/04/11 05:44:29;;;;;;;16.75;12.20;;;19.90;41.50;;;;;;5121789;27;20043;-37
2021/04/11 05:47:09;;;;;;;15.90;11.80;;;19.90;41.50;;;;;;5124318;27;20522;-37
2021/04/11 05:49:45;;;;;;;15.00;11.80;;;19.90;41.50;;;;;;5123169;27;20052;-37
2021/04/11 05:52:22;;;;;;;15.70;12.00;;;19.80;41.40;;;;;;5124324;27;20040;-37
2021/04/11 05:54:51;;;;;;;15.68;11.32;;;19.90;41.50;;;;;;5133089;27;20093;-38
2021/04/11 05:57:21;;;;;;;15.43;11.20;;;19.90;41.50;;;;;;5130103;27;20060;-38
2021/04/11 06:00:14;;;;;;;15.45;11.05;;;19.90;41.50;;;;;;5119282;27;20407;-37
2021/04/11 06:02:46;;;;;;;13.75;10.60;;;19.90;41.50;;;;;;5119672;27;20055;-37
2021/04/11 06:05:24;;;;;;;14.73;10.98;;;19.90;42.10;;;;;;5120819;27;20047;-37
2021/04/11 06:08:05;;;;;;;14.55;10.65;;;19.90;41.50;;;;;;5121528;27;20043;-37
2021/04/11 06:10:32;;;;;;;15.30;10.98;;;19.90;41.50;;;;;;5118463;27;20047;-37
2021/04/11 06:13:36;;;;;;;15.45;11.25;;;19.90;41.50;;;;;;5131636;27;20131;-37
2021/04/11 06:16:12;;;;;;;13.27;10.40;;;19.90;41.50;;;;;;5119572;27;20040;-37
2021/04/11 06:18:47;;;;;;;14.88;11.30;;;19.90;41.50;;;;;;5119397;27;20760;-37
2021/04/11 06:21:28;;;;;;;14.52;10.98;;;19.90;41.50;;;;;;5119374;27;20067;-37
2021/04/11 06:24:02;;;;;;;14.23;10.85;;;19.90;41.50;;;;;;5120145;27;20088;-37
2021/04/11 06:26:39;;;;;;;14.60;9.98;;;19.90;41.50;;;;;;5134952;27;20039;-37
2021/04/11 06:29:16;;;;;;;15.18;11.20;;;19.90;41.50;;;;;;5114885;27;20111;-37
2021/04/11 06:31:54;;;;;;;14.05;10.75;;;19.90;41.50;;;;;;5118592;27;20092;-37
2021/04/11 06:34:26;;;;;;;12.85;10.52;;;19.90;41.50;;;;;;5117822;27;20035;-37
2021/04/11 06:36:59;;;;;;;14.93;11.20;;;19.90;41.50;;;;;;5118289;27;20079;-37
2021/04/11 06:39:31;;;;;;;14.65;11.25;;;19.90;41.50;;;;;;5133725;27;20055;-37
2021/04/11 06:42:32;;;;;;;14.25;10.73;;;19.90;41.50;;;;;;5116799;27;20106;-37
2021/04/11 06:45:13;;;;;;;14.32;10.68;;;19.90;41.50;;;;;;5117218;27;20092;-36
2021/04/11 06:47:54;;;;;;;14.60;10.65;;;19.90;41.40;;;;;;5115572;27;20043;-37
2021/04/11 06:50:33;;;;;;;14.65;11.20;;;19.90;41.50;;;;;;5116095;27;20050;-37
2021/04/11 06:53:12;;;;;;;14.43;9.93;;;19.90;41.50;;;;;;5116127;27;20051;-37
2021/04/11 06:55:51;;;;;;;14.75;10.77;;;19.90;41.50;;;;;;5132640;27;20096;-37
2021/04/11 06:58:46;;;;;;;12.85;10.45;;;19.90;41.50;;;;;;5132343;27;20089;-37
2021/04/11 07:01:40;;;;;;;13.57;10.18;;;19.90;41.40;;;;;;5118031;27;20486;-37
2021/04/11 07:04:25;;;;;;;13.77;10.35;;;19.90;41.40;;;;;;5117508;27;20093;-37
2021/04/11 07:07:30;;;;;;;14.32;10.88;;;19.90;41.50;;;;;;5117622;27;20114;-36
2021/04/11 07:10:24;;;;;;;12.80;9.55;;;19.90;41.40;;;;;;5134578;27;20116;-37
2021/04/11 07:12:50;;;;;;;13.70;10.45;;;19.90;41.40;;;;;;5132930;27;20151;-37
2021/04/11 07:15:30;;;;;;;14.75;10.85;;;19.90;41.40;;;;;;5133035;27;20441;-37
2021/04/11 07:18:10;;;;;;;13.68;10.70;;;19.90;41.40;;;;;;5134380;27;20096;-37
2021/04/11 07:21:04;;;;;;;14.68;10.57;;;19.90;41.40;;;;;;5132549;27;20090;-37
2021/04/11 07:24:19;;;;;;;13.80;10.43;;;19.90;41.40;;;;;;5134314;27;20082;-37
2021/04/11 07:27:10;;;;;;;12.00;9.57;;;19.90;41.40;;;;;;5134105;27;20182;-37
2021/04/11 07:29:46;;;;;;;13.65;10.00;;;19.90;41.40;;;;;;5128021;27;20471;-37
2021/04/11 07:32:25;;;;;;;13.77;10.52;;;19.90;41.40;;;;;;5125777;27;20093;-38
2021/04/11 07:35:10;;;;;;;13.43;10.15;;;19.90;41.40;;;;;;5132619;27;20100;-37
2021/04/11 07:38:32;;;;;;;15.05;10.90;;;19.90;41.40;;;;;;5131070;27;20490;-37
2021/04/11 07:41:30;;;;;;;13.18;10.13;;;19.90;41.40;;;;;;5030178;28;20080;-37
2021/04/11 07:44:08;;;;;;;11.15;9.45;;;19.90;42.00;;;;;;5031518;28;20156;-37
2021/04/11 07:47:02;;;;;;;13.88;10.07;;;19.90;41.40;;;;;;5030467;28;20057;-37
2021/04/11 07:49:46;;;;;;;12.10;9.38;;;19.90;41.40;;;;;;5030306;28;20081;-37
2021/04/11 07:52:48;;;;;;;12.68;9.40;;;19.90;41.40;;;;;;5028808;28;20053;-37
2021/04/11 07:55:36;;;;;;;12.25;9.63;;;19.90;41.40;;;;;;5013515;28;20052;-37
2021/04/11 07:58:36;;;;;;;12.77;10.05;;;19.90;41.30;;;;;;5014088;28;20045;-38
2021/04/11 08:01:05;;;;;;;12.98;9.43;;;20.00;41.50;;;;;;5016228;28;20099;-37
2021/04/11 08:04:08;;;;;;;13.50;9.63;;;19.90;41.30;;;;;;5029725;28;20110;-37
2021/04/11 08:06:41;;;;;;;12.95;9.27;;;19.90;41.30;;;;;;5018461;28;20079;-37
2021/04/11 08:09:41;;;;;;;12.55;9.23;;;20.00;41.50;;;;;;5031030;28;20484;-37
2021/04/11 08:12:30;;;;;;;12.35;9.43;;;20.00;41.40;;;;;;5096947;27;20047;-38
2021/04/11 08:15:09;;;;;;;12.13;9.32;;;19.90;41.30;;;;;;5132446;27;20071;-38
2021/04/11 08:17:51;;;;;;;12.25;9.23;;;20.00;41.40;;;;;;5133268;27;20047;-38
2021/04/11 08:20:32;;;;;;;12.27;9.15;;;20.00;41.40;;;;;;5132930;27;20039;-37
2021/04/11 08:23:16;;;;;;;12.40;9.68;;;20.00;41.40;;;;;;5131722;27;20039;-36
2021/04/11 08:25:48;;;;;;;11.35;8.77;;;20.00;41.40;;;;;;5130669;27;20043;-37
2021/04/11 08:28:39;;;;;;;11.43;8.75;;;20.00;41.40;;;;;;5130374;27;20036;-36
2021/04/11 08:31:07;;;;;;;11.27;8.52;;;20.00;41.40;;;;;;5117309;27;20044;-37
2021/04/11 08:34:12;;;;;;;12.00;9.18;;;20.00;41.30;;;;;;5116485;27;20130;-37
2021/04/11 08:37:10;;;;;;;;;;;20.00;41.30;;;;;;5029086;28;20462;-36
2021/04/11 08:39:54;;;;;;;12.38;8.90;;;20.00;41.30;;;;;;5009725;28;19921;-38
2021/04/11 08:42:41;;;;;;;12.07;9.43;;;20.00;41.30;;;;;;5009587;28;20049;-37
2021/04/11 08:45:41;;;;;;;11.98;9.10;;;20.00;41.30;;;;;;5009659;28;20506;-37
2021/04/11 08:48:30;;;;;;;10.90;8.23;;;20.00;41.30;;;;;;5010719;28;20108;-37
2021/04/11 08:51:29;;;;;;;11.45;8.57;;;20.00;41.30;;;;;;5009472;28;20073;-38
2021/04/11 08:54:06;;;;;;;10.98;8.45;;;20.00;41.30;;;;;;4972244;28;20047;-37
2021/04/11 08:56:51;;;;;;;12.20;8.95;;;20.00;41.30;;;;;;4971617;28;20121;-37
2021/04/11 08:59:56;;;;;;;11.05;8.60;;;20.00;41.30;;;;;;4984416;28;20100;-38
2021/04/11 09:02:31;;;;;;;10.50;7.65;;;20.10;41.30;;;;;;4970756;28;20042;-37
2021/04/11 09:05:13;;;;;;;10.00;7.88;;;20.10;41.30;;;;;;4971947;28;20047;-37
2021/04/11 09:08:17;;;;;;;10.57;8.10;;;20.10;41.30;;;;;;4970690;28;20559;-37
2021/04/11 09:11:24;;;;;;;10.85;7.88;;;20.10;41.30;;;;;;5009865;28;20556;-37
2021/04/11 09:14:24;;;;;;;11.02;7.78;;;20.10;41.30;;;;;;5028017;28;20045;-37
2021/04/11 09:17:46;;;;;;;10.63;7.70;;;20.00;41.30;;;;;;5048075;28;20394;-37
2021/04/11 09:20:53;;;;;;;10.98;7.93;;;20.10;41.30;;;;;;5009394;28;20481;-37
2021/04/11 09:23:38;;;;;;;9.85;7.68;;;20.00;41.30;;;;;;5009169;28;20548;-37
2021/04/11 09:26:41;;;;;;;10.27;7.75;;;20.00;41.30;;;;;;5003656;28;20050;-36
2021/04/11 09:29:12;;;;;;;10.43;7.40;;;20.10;41.30;;;;;;5011532;28;20141;-37
2021/04/11 09:32:24;;;;;;;11.02;8.10;;;20.10;41.30;;;;;;5075268;28;20048;-37
2021/04/11 09:35:05;;;;;;;10.38;7.85;;;20.10;41.40;;;;;;5092123;28;20076;-38
2021/04/11 09:37:53;;;;;;;11.07;8.05;;;20.10;41.40;;;;;;5092080;28;20048;-38
2021/04/11 09:40:31;;;;;;;10.20;7.38;;;20.10;41.30;;;;;;5092867;28;20488;-38
2021/04/11 09:43:26;;;;;;;9.82;7.40;;;20.10;41.40;;;;;;5092336;28;20123;-37
2021/04/11 09:45:52;;;;;;;;;;;20.10;41.40;;;;;;5092636;28;20123;-37
2021/04/11 09:48:44;;;;;;;9.68;7.10;;;20.10;41.40;;;;;;5092880;28;19923;-37
2021/04/11 09:51:51;;;;;;;8.98;7.13;;;20.10;41.40;;;;;;5090689;28;20076;-37
2021/04/11 09:54:32;;;;;;;9.13;7.05;;;20.10;41.40;;;;;;5101366;27;20043;-37
2021/04/11 09:57:23;;;;;;;8.73;6.82;;;20.10;41.40;;;;;;5133447;27;20547;-37
2021/04/11 09:59:56;;;;;;;9.90;7.10;;;20.10;41.40;;;;;;5132888;27;20127;-37
2021/04/11 10:02:50;;;;;;;9.73;7.15;;;20.10;41.40;;;;;;5134417;27;20049;-37
2021/04/11 10:05:55;;;;;;;9.70;7.05;;;20.10;41.50;;;;;;5134372;27;20457;-38
2021/04/11 10:08:24;;;;;;;10.65;8.10;;;20.10;41.40;;;;;;5132760;27;20069;-37
2021/04/11 10:11:12;;;;;;;10.10;7.35;;;20.10;41.40;;;;;;5135402;27;20043;-38
2021/04/11 10:13:56;;;;;;;9.45;7.28;;;20.10;41.40;;;;;;5117746;27;20494;-38
2021/04/11 10:16:29;;;;;;;9.75;7.57;;;20.10;41.50;;;;;;5134209;27;20483;-37
2021/04/11 10:19:13;;;;;;;8.63;6.38;;;20.10;41.50;;;;;;5133691;27;20482;-37
2021/04/11 10:22:17;;;;;;;9.20;7.03;;;20.10;41.50;;;;;;5135487;27;20384;-37
2021/04/11 10:24:43;;;;;;;9.77;7.00;;;20.10;41.50;;;;;;5134018;27;20100;-38
2021/04/11 10:27:24;;;;;;;9.93;6.95;;;20.10;41.50;;;;;;5134701;27;20047;-37
2021/04/11 10:29:51;;;;;;;10.05;7.35;;;20.10;41.50;;;;;;5133334;27;20039;-37
2021/04/11 10:32:47;;;;;;;10.65;7.20;;;20.10;41.50;;;;;;5132386;27;20092;-37
2021/04/11 10:35:23;;;;;;;9.15;7.03;;;20.10;41.50;;;;;;5133759;27;20035;-37
2021/04/11 10:38:04;;;;;;;9.25;6.72;;;20.10;41.50;;;;;;5134781;27;20051;-37
2021/04/11 10:40:56;;;;;;;8.95;6.60;;;20.10;41.50;;;;;;5133586;27;20070;-36
2021/04/11 10:43:44;;;;;;;9.10;6.85;;;20.10;41.50;;;;;;5133140;27;20050;-37
2021/04/11 10:46:23;;;;;;;9.18;7.15;;;20.10;41.50;;;;;;5134882;27;20047;-37
2021/04/11 10:49:02;;;;;;;8.57;6.88;;;20.20;41.60;;;;;;5134573;27;20042;-37
2021/04/11 10:51:48;;;;;;;8.57;6.78;;;20.10;41.50;;;;;;5131986;27;20536;-37
2021/04/11 10:54:41;;;;;;;8.98;6.72;;;20.10;41.50;;;;;;5128513;27;20043;-37
2021/04/11 10:57:45;;;;;;;9.20;6.82;;;20.20;41.60;;;;;;5117310;27;20100;-37
2021/04/11 11:00:37;;;;;;;7.95;6.05;;;20.20;41.60;;;;;;5126021;27;20047;-38
2021/04/11 11:03:22;;;;;;;8.80;7.05;;;20.20;41.60;;;;;;5121523;27;20043;-37
2021/04/11 11:06:17;;;;;;;9.10;6.57;;;20.10;41.50;;;;;;5126869;27;20047;-36
2021/04/11 11:09:06;;;;;;;;;;;20.20;42.20;;;;;;5122329;27;20044;-37
2021/04/11 11:12:10;;;;;;;9.02;6.90;;;20.20;41.70;;;;;;5131908;27;20279;-37
2021/04/11 11:14:42;;;;;;;8.95;7.00;;;20.10;41.50;;;;;;5120741;27;20047;-37
2021/04/11 11:17:24;;;;;;;8.27;6.30;;;20.10;41.60;;;;;;5118406;27;20081;-37
2021/04/11 11:20:09;;;;;;;8.23;6.32;;;20.10;41.60;;;;;;5118248;27;20051;-37
2021/04/11 11:23:04;;;;;;;8.40;6.68;;;20.10;41.60;;;;;;5134701;27;20059;-37
2021/04/11 11:25:49;;;;;;;;;;;20.10;41.60;;;;;;5133916;27;20444;-38
2021/04/11 11:28:33;;;;;;;9.23;6.88;;;20.20;41.70;;;;;;5114643;27;19923;-37
2021/04/11 11:31:13;;;;;;;8.98;6.68;;;20.20;41.70;;;;;;5114369;27;20043;-37
2021/04/11 11:33:46;;;;;;;8.75;6.72;;;20.20;41.70;;;;;;5115536;27;20111;-37
2021/04/11 11:36:49;;;;;;;8.77;6.68;;;20.10;41.60;;;;;;5116255;27;20089;-38
2021/04/11 11:39:32;;;;;;;8.13;6.57;;;20.10;41.70;;;;;;5117191;27;20039;-37
2021/04/11 11:41:59;;;;;;;8.23;6.47;;;20.10;41.60;;;;;;5117097;27;20048;-37
2021/04/11 11:44:30;;;;;;;8.18;5.95;;;20.10;41.60;;;;;;5132478;27;20075;-37
2021/04/11 11:47:17;;;;;;;7.82;5.90;;;20.10;41.60;;;;;;5134505;27;20051;-37
2021/04/11 11:49:50;;;;;;;9.27;6.68;;;20.10;41.60;;;;;;5115628;27;20051;-38
2021/04/11 11:52:26;;;;;;;9.13;6.37;;;20.10;41.60;;;;;;5116276;27;20551;-36
2021/04/11 11:55:07;;;;;;;7.95;6.35;;;20.20;41.70;;;;;;5132146;27;20285;-37
2021/04/11 11:57:55;;;;;;;8.80;6.32;;;20.10;41.60;;;;;;5098128;27;20050;-37
2021/04/11 12:00:53;;;;;;;8.98;6.68;;;20.20;41.70;;;;;;5132476;27;20103;-37
2021/04/11 12:03:36;;;;;;;7.13;5.90;;;20.10;41.60;;;;;;5120045;27;20047;-37
2021/04/11 12:06:17;;;;;;;8.18;6.60;;;20.20;41.80;;;;;;5131808;27;20047;-37
2021/04/11 12:09:14;;;;;;;8.43;6.30;;;20.10;41.70;;;;;;5131670;27;20043;-37
2021/04/11 12:11:43;;;;;;;8.48;6.00;;;20.20;41.80;;;;;;5115276;27;20044;-37
2021/04/11 12:14:44;;;;;;;7.93;6.20;;;20.20;41.80;;;;;;5131484;27;20154;-37
2021/04/11 12:17:11;;;;;;;9.50;6.60;;;20.10;41.80;;;;;;5070629;28;20072;-37
2021/04/11 12:20:18;;;;;;;8.63;6.00;;;20.10;41.70;;;;;;5087737;28;20083;-37
2021/04/11 12:23:11;;;;;;;8.90;6.07;;;20.10;41.70;;;;;;5070902;28;20408;-37
2021/04/11 12:25:38;;;;;;;9.02;6.88;;;20.10;41.70;;;;;;5053730;28;20186;-37
2021/04/11 12:28:13;;;;;;;8.27;6.25;;;20.20;41.80;;;;;;5088079;28;20475;-37
2021/04/11 12:30:42;;;;;;;8.02;6.00;;;20.20;41.80;;;;;;5079067;28;20119;-37
2021/04/11 12:33:11;;;;;;;8.20;6.13;;;20.20;41.80;;;;;;5090057;28;20052;-37
2021/04/11 12:35:50;;;;;;;8.02;6.05;;;20.10;41.70;;;;;;5088473;28;20142;-37
2021/04/11 12:38:26;;;;;;;7.88;6.13;;;20.10;41.70;;;;;;5088666;28;20051;-37
2021/04/11 12:41:04;;;;;;;7.63;5.97;;;20.20;41.80;;;;;;5086436;28;20694;-37
2021/04/11 12:43:46;;;;;;;9.68;7.05;;;20.20;41.80;;;;;;5087732;28;20044;-38
2021/04/11 12:46:36;;;;;;;7.07;5.68;;;20.20;41.80;;;;;;5087960;28;20055;-38
2021/04/11 12:49:27;;;;;;;8.25;5.88;;;20.20;41.80;;;;;;5087567;28;20114;-38
2021/04/11 12:52:19;;;;;;;6.82;5.55;;;20.20;41.80;;;;;;5075232;28;20050;-38
2021/04/11 12:55:20;;;;;;;8.02;6.00;;;20.20;41.80;;;;;;5131583;27;20107;-38
2021/04/11 12:58:18;;;;;;;7.50;6.15;;;20.20;41.80;;;;;;5101839;27;20112;-38
2021/04/11 13:01:00;;;;;;;7.20;5.72;;;20.20;41.80;;;;;;5115732;27;20043;-37
2021/04/11 13:03:34;;;;;;;7.53;6.00;;;20.20;41.80;;;;;;5120359;27;20375;-37
2021/04/11 13:06:27;;;;;;;7.82;5.75;;;20.20;41.80;;;;;;5119481;27;20047;-37
2021/04/11 13:08:54;;;;;;;9.27;6.50;;;20.20;41.80;;;;;;5135783;27;20036;-38
2021/04/11 13:11:40;;;;;;;10.90;6.00;;;20.20;41.80;;;;;;5135590;27;20038;-38
2021/04/11 13:14:18;;;;;;;7.07;5.72;;;20.20;41.80;;;;;;5116808;27;20473;-38
2021/04/11 13:17:31;;;;;;;8.30;6.07;;;20.20;41.70;;;;;;5136784;27;20046;-37
2021/04/11 13:20:26;;;;;;;7.75;6.10;;;20.20;41.70;;;;;;5120274;27;20133;-38
2021/04/11 13:23:21;;;;;;;7.93;5.88;;;20.20;41.80;;;;;;5130240;27;20101;-38
2021/04/11 13:26:02;;;;;;;7.40;5.78;;;20.20;41.70;;;;;;5110091;27;20498;-38
2021/04/11 13:28:47;;;;;;;7.45;5.70;;;20.20;41.80;;;;;;5108017;28;20051;-38
2021/04/11 13:31:18;;;;;;;;;;;20.20;41.80;;;;;;5131754;27;20087;-38
2021/04/11 13:33:59;;;;;;;8.32;5.88;;;20.20;41.80;;;;;;5136187;27;19920;-37
2021/04/11 13:36:29;;;;;;;8.85;6.00;;;20.20;41.80;;;;;;5127233;27;20495;-37
2021/04/11 13:39:26;;;;;;;7.13;5.80;;;20.20;41.80;;;;;;5119087;27;20066;-38
2021/04/11 13:42:02;;;;;;;7.07;5.57;;;20.20;41.80;;;;;;5119003;27;20044;-36
2021/04/11 13:44:34;;;;;;;7.50;5.50;;;20.20;41.80;;;;;;5119274;27;20046;-38